Terminal Aerodrome Forecast
Issued by NWS

Home | Current Version | Previous Version | Text Only | Print | Product List | Glossary On
Versions: 1 2 3 4 5 6 7 8 9 10 11 12 13 14 15 16 17 18 19 20 21 22 23 24 25 26 27 28
000
FTUS41 KBUF 301200 AAA
TAFIAG
TAF AMD
KIAG 301206Z 3012/3112 32012KT P6SM VCSH BKN025 OVC080
      TEMPO 3012/3015 33015G25KT 2SM -SHSN
     FM302300 30013KT P6SM SCT025
     FM310500 29008KT P6SM SCT200
     FM311000 25005KT P6SM BKN100=

USA.gov is the U.S. government's official web portal to all federal, state and local government web resources and services.